sensor_id;sensor_type;location;lat;lon;timestamp;P1;durP1;ratioP1;P2;durP2;ratioP2
82244;SDS011;71849;50.096;14.458;2024-02-21T00:00:34;7.22;;;2.63;;
82244;SDS011;71849;50.096;14.458;2024-02-21T00:03:03;10.65;;;2.42;;
82244;SDS011;71849;50.096;14.458;2024-02-21T00:05:32;11.65;;;2.53;;
82244;SDS011;71849;50.096;14.458;2024-02-21T00:08:01;12.38;;;2.38;;
82244;SDS011;71849;50.096;14.458;2024-02-21T00:10:32;9.82;;;2.28;;
82244;SDS011;71849;50.096;14.458;2024-02-21T00:13:03;9.85;;;2.30;;
82244;SDS011;71849;50.096;14.458;2024-02-21T00:15:32;7.53;;;2.25;;
82244;SDS011;71849;50.096;14.458;2024-02-21T00:18:00;12.23;;;2.38;;
82244;SDS011;71849;50.096;14.458;2024-02-21T00:20:29;10.82;;;2.88;;
82244;SDS011;71849;50.096;14.458;2024-02-21T00:22:57;9.95;;;2.20;;
82244;SDS011;71849;50.096;14.458;2024-02-21T00:27:56;7.85;;;2.00;;
82244;SDS011;71849;50.096;14.458;2024-02-21T00:30:27;12.48;;;2.28;;
82244;SDS011;71849;50.096;14.458;2024-02-21T00:32:55;6.40;;;2.15;;
82244;SDS011;71849;50.096;14.458;2024-02-21T00:35:24;11.73;;;3.47;;
82244;SDS011;71849;50.096;14.458;2024-02-21T00:37:52;7.35;;;2.35;;
82244;SDS011;71849;50.096;14.458;2024-02-21T00:40:22;8.60;;;2.53;;
82244;SDS011;71849;50.096;14.458;2024-02-21T00:42:50;8.18;;;2.42;;
82244;SDS011;71849;50.096;14.458;2024-02-21T00:45:19;9.10;;;2.55;;
82244;SDS011;71849;50.096;14.458;2024-02-21T00:47:51;8.55;;;2.70;;
82244;SDS011;71849;50.096;14.458;2024-02-21T00:50:19;8.10;;;2.50;;
82244;SDS011;71849;50.096;14.458;2024-02-21T00:52:48;9.60;;;2.20;;
82244;SDS011;71849;50.096;14.458;2024-02-21T00:55:16;7.35;;;2.58;;
82244;SDS011;71849;50.096;14.458;2024-02-21T00:57:48;9.35;;;2.50;;
82244;SDS011;71849;50.096;14.458;2024-02-21T01:00:17;8.30;;;2.58;;
82244;SDS011;71849;50.096;14.458;2024-02-21T01:02:46;9.02;;;2.53;;
82244;SDS011;71849;50.096;14.458;2024-02-21T01:05:17;7.93;;;2.70;;
82244;SDS011;71849;50.096;14.458;2024-02-21T01:07:45;7.82;;;2.83;;
82244;SDS011;71849;50.096;14.458;2024-02-21T01:10:14;6.80;;;2.20;;
82244;SDS011;71849;50.096;14.458;2024-02-21T01:12:42;8.57;;;2.05;;
82244;SDS011;71849;50.096;14.458;2024-02-21T01:15:11;9.93;;;2.63;;
82244;SDS011;71849;50.096;14.458;2024-02-21T01:17:39;8.75;;;2.40;;
82244;SDS011;71849;50.096;14.458;2024-02-21T01:20:08;8.80;;;2.65;;
82244;SDS011;71849;50.096;14.458;2024-02-21T01:22:40;9.60;;;2.72;;
82244;SDS011;71849;50.096;14.458;2024-02-21T01:25:08;7.72;;;2.70;;
82244;SDS011;71849;50.096;14.458;2024-02-21T01:27:37;10.43;;;2.47;;
82244;SDS011;71849;50.096;14.458;2024-02-21T01:30:06;5.53;;;2.35;;
82244;SDS011;71849;50.096;14.458;2024-02-21T01:35:04;10.02;;;2.47;;
82244;SDS011;71849;50.096;14.458;2024-02-21T01:37:33;8.38;;;2.85;;
82244;SDS011;71849;50.096;14.458;2024-02-21T01:40:04;7.32;;;2.58;;
82244;SDS011;71849;50.096;14.458;2024-02-21T01:42:37;10.63;;;2.33;;
82244;SDS011;71849;50.096;14.458;2024-02-21T01:45:06;8.57;;;2.33;;
82244;SDS011;71849;50.096;14.458;2024-02-21T01:47:35;7.30;;;2.75;;
82244;SDS011;71849;50.096;14.458;2024-02-21T01:50:10;10.43;;;3.03;;
82244;SDS011;71849;50.096;14.458;2024-02-21T01:52:40;10.23;;;2.10;;
82244;SDS011;71849;50.096;14.458;2024-02-21T01:55:12;10.77;;;2.60;;
82244;SDS011;71849;50.096;14.458;2024-02-21T01:57:41;10.05;;;3.38;;
82244;SDS011;71849;50.096;14.458;2024-02-21T02:00:13;7.88;;;2.83;;
82244;SDS011;71849;50.096;14.458;2024-02-21T02:02:42;8.63;;;2.75;;
82244;SDS011;71849;50.096;14.458;2024-02-21T02:05:12;14.15;;;2.90;;
82244;SDS011;71849;50.096;14.458;2024-02-21T02:07:40;7.47;;;2.40;;
82244;SDS011;71849;50.096;14.458;2024-02-21T02:10:11;9.70;;;2.38;;
82244;SDS011;71849;50.096;14.458;2024-02-21T02:12:40;7.70;;;2.13;;
82244;SDS011;71849;50.096;14.458;2024-02-21T02:15:09;9.70;;;2.60;;
82244;SDS011;71849;50.096;14.458;2024-02-21T02:17:37;8.43;;;2.25;;
82244;SDS011;71849;50.096;14.458;2024-02-21T02:20:06;10.05;;;2.70;;
82244;SDS011;71849;50.096;14.458;2024-02-21T02:22:35;6.53;;;2.33;;
82244;SDS011;71849;50.096;14.458;2024-02-21T02:25:10;9.63;;;3.10;;
82244;SDS011;71849;50.096;14.458;2024-02-21T02:27:41;8.52;;;2.50;;
82244;SDS011;71849;50.096;14.458;2024-02-21T02:30:11;9.57;;;2.92;;
82244;SDS011;71849;50.096;14.458;2024-02-21T02:32:43;9.20;;;2.20;;
82244;SDS011;71849;50.096;14.458;2024-02-21T02:35:12;10.90;;;2.42;;
82244;SDS011;71849;50.096;14.458;2024-02-21T02:37:38;8.50;;;3.00;;
82244;SDS011;71849;50.096;14.458;2024-02-21T02:40:10;7.55;;;2.40;;
82244;SDS011;71849;50.096;14.458;2024-02-21T02:42:39;8.75;;;2.72;;
82244;SDS011;71849;50.096;14.458;2024-02-21T02:45:08;10.52;;;2.90;;
82244;SDS011;71849;50.096;14.458;2024-02-21T02:47:38;11.32;;;2.90;;
82244;SDS011;71849;50.096;14.458;2024-02-21T02:50:08;9.40;;;2.88;;
82244;SDS011;71849;50.096;14.458;2024-02-21T02:52:37;8.30;;;2.75;;
82244;SDS011;71849;50.096;14.458;2024-02-21T02:55:06;14.15;;;3.63;;
82244;SDS011;71849;50.096;14.458;2024-02-21T02:57:37;8.23;;;2.72;;
82244;SDS011;71849;50.096;14.458;2024-02-21T03:00:07;8.73;;;2.45;;
82244;SDS011;71849;50.096;14.458;2024-02-21T03:02:37;9.07;;;2.60;;
82244;SDS011;71849;50.096;14.458;2024-02-21T03:05:11;8.40;;;2.42;;
82244;SDS011;71849;50.096;14.458;2024-02-21T03:07:41;9.68;;;2.70;;
82244;SDS011;71849;50.096;14.458;2024-02-21T03:10:10;8.63;;;2.45;;
82244;SDS011;71849;50.096;14.458;2024-02-21T03:12:44;11.88;;;2.78;;
82244;SDS011;71849;50.096;14.458;2024-02-21T03:15:12;6.57;;;2.65;;
82244;SDS011;71849;50.096;14.458;2024-02-21T03:17:41;8.57;;;3.05;;
82244;SDS011;71849;50.096;14.458;2024-02-21T03:20:10;13.30;;;2.97;;
82244;SDS011;71849;50.096;14.458;2024-02-21T03:22:39;9.00;;;2.55;;
82244;SDS011;71849;50.096;14.458;2024-02-21T03:25:08;11.13;;;2.97;;
82244;SDS011;71849;50.096;14.458;2024-02-21T03:27:38;8.02;;;2.97;;
82244;SDS011;71849;50.096;14.458;2024-02-21T03:30:10;14.00;;;2.90;;
82244;SDS011;71849;50.096;14.458;2024-02-21T03:32:39;10.23;;;2.50;;
82244;SDS011;71849;50.096;14.458;2024-02-21T03:35:08;9.70;;;2.83;;
82244;SDS011;71849;50.096;14.458;2024-02-21T03:37:36;10.00;;;2.55;;
82244;SDS011;71849;50.096;14.458;2024-02-21T03:40:07;9.20;;;2.45;;
82244;SDS011;71849;50.096;14.458;2024-02-21T03:42:37;10.20;;;2.70;;
82244;SDS011;71849;50.096;14.458;2024-02-21T03:45:06;8.43;;;2.67;;
82244;SDS011;71849;50.096;14.458;2024-02-21T03:50:06;8.48;;;2.63;;
82244;SDS011;71849;50.096;14.458;2024-02-21T03:52:36;7.20;;;2.50;;
82244;SDS011;71849;50.096;14.458;2024-02-21T03:55:04;8.38;;;3.15;;
82244;SDS011;71849;50.096;14.458;2024-02-21T03:57:34;12.25;;;2.95;;
82244;SDS011;71849;50.096;14.458;2024-02-21T04:00:03;8.63;;;2.70;;
82244;SDS011;71849;50.096;14.458;2024-02-21T04:02:38;10.85;;;2.60;;
82244;SDS011;71849;50.096;14.458;2024-02-21T04:05:07;9.75;;;2.90;;
82244;SDS011;71849;50.096;14.458;2024-02-21T04:07:36;7.75;;;3.05;;
82244;SDS011;71849;50.096;14.458;2024-02-21T04:10:06;10.00;;;2.80;;
82244;SDS011;71849;50.096;14.458;2024-02-21T04:12:35;7.53;;;2.97;;
82244;SDS011;71849;50.096;14.458;2024-02-21T04:15:04;10.27;;;2.85;;
82244;SDS011;71849;50.096;14.458;2024-02-21T04:17:32;9.70;;;2.80;;
82244;SDS011;71849;50.096;14.458;2024-02-21T04:20:04;9.68;;;2.97;;
82244;SDS011;71849;50.096;14.458;2024-02-21T04:22:36;9.73;;;2.40;;
82244;SDS011;71849;50.096;14.458;2024-02-21T04:25:04;8.82;;;2.58;;
82244;SDS011;71849;50.096;14.458;2024-02-21T04:27:33;9.68;;;3.20;;
82244;SDS011;71849;50.096;14.458;2024-02-21T04:30:02;7.88;;;2.40;;
82244;SDS011;71849;50.096;14.458;2024-02-21T04:32:31;7.10;;;2.30;;
82244;SDS011;71849;50.096;14.458;2024-02-21T04:35:00;10.50;;;2.92;;
82244;SDS011;71849;50.096;14.458;2024-02-21T04:37:31;8.45;;;2.65;;
82244;SDS011;71849;50.096;14.458;2024-02-21T04:39:59;16.60;;;3.58;;
82244;SDS011;71849;50.096;14.458;2024-02-21T04:42:28;8.95;;;3.42;;
82244;SDS011;71849;50.096;14.458;2024-02-21T04:44:56;9.20;;;3.35;;
82244;SDS011;71849;50.096;14.458;2024-02-21T04:47:25;7.95;;;2.53;;
82244;SDS011;71849;50.096;14.458;2024-02-21T04:49:53;6.72;;;2.70;;
82244;SDS011;71849;50.096;14.458;2024-02-21T04:52:22;8.70;;;2.80;;
82244;SDS011;71849;50.096;14.458;2024-02-21T04:54:53;9.00;;;2.60;;
82244;SDS011;71849;50.096;14.458;2024-02-21T04:57:21;12.32;;;2.97;;
82244;SDS011;71849;50.096;14.458;2024-02-21T04:59:50;10.23;;;2.63;;
82244;SDS011;71849;50.096;14.458;2024-02-21T05:02:20;11.32;;;2.50;;
82244;SDS011;71849;50.096;14.458;2024-02-21T05:04:49;9.45;;;3.05;;
82244;SDS011;71849;50.096;14.458;2024-02-21T05:07:18;8.40;;;3.05;;
82244;SDS011;71849;50.096;14.458;2024-02-21T05:09:46;11.85;;;2.53;;
82244;SDS011;71849;50.096;14.458;2024-02-21T05:12:17;11.38;;;2.50;;
82244;SDS011;71849;50.096;14.458;2024-02-21T05:14:46;9.38;;;2.35;;
82244;SDS011;71849;50.096;14.458;2024-02-21T05:17:15;11.23;;;2.65;;
82244;SDS011;71849;50.096;14.458;2024-02-21T05:19:44;9.93;;;2.90;;
82244;SDS011;71849;50.096;14.458;2024-02-21T05:22:12;13.30;;;3.00;;
82244;SDS011;71849;50.096;14.458;2024-02-21T05:24:40;11.02;;;2.70;;
82244;SDS011;71849;50.096;14.458;2024-02-21T05:27:09;8.85;;;2.50;;
82244;SDS011;71849;50.096;14.458;2024-02-21T05:29:40;8.18;;;2.78;;
82244;SDS011;71849;50.096;14.458;2024-02-21T05:32:09;9.30;;;2.90;;
82244;SDS011;71849;50.096;14.458;2024-02-21T05:34:38;9.48;;;3.35;;
82244;SDS011;71849;50.096;14.458;2024-02-21T05:37:06;12.02;;;3.33;;
82244;SDS011;71849;50.096;14.458;2024-02-21T05:39:35;9.23;;;3.17;;
82244;SDS011;71849;50.096;14.458;2024-02-21T05:42:03;11.98;;;3.03;;
82244;SDS011;71849;50.096;14.458;2024-02-21T05:44:32;9.52;;;2.85;;
82244;SDS011;71849;50.096;14.458;2024-02-21T05:47:04;9.75;;;3.28;;
82244;SDS011;71849;50.096;14.458;2024-02-21T05:49:35;9.20;;;3.10;;
82244;SDS011;71849;50.096;14.458;2024-02-21T05:52:03;9.15;;;3.47;;
82244;SDS011;71849;50.096;14.458;2024-02-21T05:54:33;11.23;;;3.13;;
82244;SDS011;71849;50.096;14.458;2024-02-21T05:57:01;8.82;;;2.67;;
82244;SDS011;71849;50.096;14.458;2024-02-21T05:59:30;8.85;;;2.88;;
82244;SDS011;71849;50.096;14.458;2024-02-21T06:01:58;7.95;;;2.80;;
82244;SDS011;71849;50.096;14.458;2024-02-21T06:04:31;13.35;;;3.42;;
82244;SDS011;71849;50.096;14.458;2024-02-21T06:07:00;7.57;;;3.00;;
82244;SDS011;71849;50.096;14.458;2024-02-21T06:09:31;10.15;;;2.92;;
82244;SDS011;71849;50.096;14.458;2024-02-21T06:12:00;12.32;;;3.15;;
82244;SDS011;71849;50.096;14.458;2024-02-21T06:14:28;12.35;;;2.97;;
82244;SDS011;71849;50.096;14.458;2024-02-21T06:16:57;11.38;;;3.35;;
82244;SDS011;71849;50.096;14.458;2024-02-21T06:19:25;9.48;;;3.13;;
82244;SDS011;71849;50.096;14.458;2024-02-21T06:21:57;11.05;;;3.10;;
82244;SDS011;71849;50.096;14.458;2024-02-21T06:24:26;11.63;;;3.15;;
82244;SDS011;71849;50.096;14.458;2024-02-21T06:26:55;9.18;;;2.85;;
82244;SDS011;71849;50.096;14.458;2024-02-21T06:29:23;11.80;;;3.10;;
82244;SDS011;71849;50.096;14.458;2024-02-21T06:31:52;8.48;;;3.20;;
82244;SDS011;71849;50.096;14.458;2024-02-21T06:34:23;10.27;;;3.00;;
82244;SDS011;71849;50.096;14.458;2024-02-21T06:36:51;9.43;;;2.88;;
82244;SDS011;71849;50.096;14.458;2024-02-21T06:39:23;9.93;;;3.00;;
82244;SDS011;71849;50.096;14.458;2024-02-21T06:41:51;11.07;;;4.18;;
82244;SDS011;71849;50.096;14.458;2024-02-21T06:44:21;11.63;;;3.35;;
82244;SDS011;71849;50.096;14.458;2024-02-21T06:46:49;11.93;;;3.78;;
82244;SDS011;71849;50.096;14.458;2024-02-21T06:51:47;9.68;;;3.25;;
82244;SDS011;71849;50.096;14.458;2024-02-21T06:54:16;10.88;;;3.63;;
82244;SDS011;71849;50.096;14.458;2024-02-21T06:56:47;9.63;;;3.08;;
82244;SDS011;71849;50.096;14.458;2024-02-21T06:59:16;7.20;;;2.67;;
82244;SDS011;71849;50.096;14.458;2024-02-21T07:01:48;11.90;;;3.88;;
82244;SDS011;71849;50.096;14.458;2024-02-21T07:04:18;13.30;;;3.65;;
82244;SDS011;71849;50.096;14.458;2024-02-21T07:06:46;9.05;;;3.10;;
82244;SDS011;71849;50.096;14.458;2024-02-21T07:09:15;9.20;;;3.55;;
82244;SDS011;71849;50.096;14.458;2024-02-21T07:11:43;10.65;;;3.13;;
82244;SDS011;71849;50.096;14.458;2024-02-21T07:14:15;9.05;;;2.85;;
82244;SDS011;71849;50.096;14.458;2024-02-21T07:16:46;9.23;;;3.10;;
82244;SDS011;71849;50.096;14.458;2024-02-21T07:19:17;12.45;;;3.78;;
82244;SDS011;71849;50.096;14.458;2024-02-21T07:21:45;10.18;;;3.25;;
82244;SDS011;71849;50.096;14.458;2024-02-21T07:24:14;10.32;;;3.05;;
82244;SDS011;71849;50.096;14.458;2024-02-21T07:26:43;11.02;;;3.28;;
82244;SDS011;71849;50.096;14.458;2024-02-21T07:29:11;8.88;;;3.50;;
82244;SDS011;71849;50.096;14.458;2024-02-21T07:31:43;12.90;;;3.22;;
82244;SDS011;71849;50.096;14.458;2024-02-21T07:34:14;7.88;;;3.70;;
82244;SDS011;71849;50.096;14.458;2024-02-21T07:36:43;13.65;;;3.95;;
82244;SDS011;71849;50.096;14.458;2024-02-21T07:39:11;13.82;;;5.70;;
82244;SDS011;71849;50.096;14.458;2024-02-21T07:41:40;8.63;;;3.33;;
82244;SDS011;71849;50.096;14.458;2024-02-21T07:44:11;10.65;;;2.95;;
82244;SDS011;71849;50.096;14.458;2024-02-21T07:46:40;13.65;;;4.13;;
82244;SDS011;71849;50.096;14.458;2024-02-21T07:49:11;16.85;;;3.40;;
82244;SDS011;71849;50.096;14.458;2024-02-21T07:51:41;10.95;;;3.22;;
82244;SDS011;71849;50.096;14.458;2024-02-21T07:54:11;10.93;;;3.80;;
82244;SDS011;71849;50.096;14.458;2024-02-21T07:56:42;12.52;;;3.85;;
82244;SDS011;71849;50.096;14.458;2024-02-21T07:59:10;11.50;;;3.63;;
82244;SDS011;71849;50.096;14.458;2024-02-21T08:01:43;13.45;;;4.22;;
82244;SDS011;71849;50.096;14.458;2024-02-21T08:04:14;10.70;;;3.47;;
82244;SDS011;71849;50.096;14.458;2024-02-21T08:06:43;11.18;;;3.20;;
82244;SDS011;71849;50.096;14.458;2024-02-21T08:09:13;11.95;;;4.13;;
82244;SDS011;71849;50.096;14.458;2024-02-21T08:11:42;17.08;;;3.95;;
82244;SDS011;71849;50.096;14.458;2024-02-21T08:14:10;13.93;;;3.60;;
82244;SDS011;71849;50.096;14.458;2024-02-21T08:16:43;16.85;;;4.15;;
82244;SDS011;71849;50.096;14.458;2024-02-21T08:19:12;12.90;;;3.20;;
82244;SDS011;71849;50.096;14.458;2024-02-21T08:21:41;13.50;;;3.85;;
82244;SDS011;71849;50.096;14.458;2024-02-21T08:24:12;12.32;;;3.30;;
82244;SDS011;71849;50.096;14.458;2024-02-21T08:26:40;11.50;;;3.70;;
82244;SDS011;71849;50.096;14.458;2024-02-21T08:29:09;14.27;;;4.50;;
82244;SDS011;71849;50.096;14.458;2024-02-21T08:31:38;12.45;;;4.78;;
82244;SDS011;71849;50.096;14.458;2024-02-21T08:34:09;15.30;;;4.13;;
82244;SDS011;71849;50.096;14.458;2024-02-21T08:36:38;13.48;;;3.50;;
82244;SDS011;71849;50.096;14.458;2024-02-21T08:39:08;13.15;;;4.00;;
82244;SDS011;71849;50.096;14.458;2024-02-21T08:41:40;8.73;;;3.25;;
82244;SDS011;71849;50.096;14.458;2024-02-21T08:44:09;12.57;;;3.30;;
82244;SDS011;71849;50.096;14.458;2024-02-21T08:46:37;8.70;;;3.33;;
82244;SDS011;71849;50.096;14.458;2024-02-21T08:49:06;16.20;;;4.07;;
82244;SDS011;71849;50.096;14.458;2024-02-21T08:51:37;12.63;;;6.03;;
82244;SDS011;71849;50.096;14.458;2024-02-21T08:54:06;13.55;;;4.78;;
82244;SDS011;71849;50.096;14.458;2024-02-21T08:56:34;10.55;;;3.70;;
82244;SDS011;71849;50.096;14.458;2024-02-21T08:59:03;13.90;;;4.38;;
82244;SDS011;71849;50.096;14.458;2024-02-21T09:01:32;11.23;;;4.30;;
82244;SDS011;71849;50.096;14.458;2024-02-21T09:04:03;13.30;;;3.97;;
82244;SDS011;71849;50.096;14.458;2024-02-21T09:06:32;16.15;;;3.97;;
82244;SDS011;71849;50.096;14.458;2024-02-21T09:09:07;11.63;;;4.43;;
82244;SDS011;71849;50.096;14.458;2024-02-21T09:11:35;11.57;;;3.70;;
82244;SDS011;71849;50.096;14.458;2024-02-21T09:14:05;11.07;;;4.55;;
82244;SDS011;71849;50.096;14.458;2024-02-21T09:16:33;10.82;;;3.85;;
82244;SDS011;71849;50.096;14.458;2024-02-21T09:19:02;12.85;;;3.92;;
82244;SDS011;71849;50.096;14.458;2024-02-21T09:21:30;13.30;;;4.70;;
82244;SDS011;71849;50.096;14.458;2024-02-21T09:23:59;13.80;;;3.88;;
82244;SDS011;71849;50.096;14.458;2024-02-21T09:26:30;10.60;;;4.20;;
82244;SDS011;71849;50.096;14.458;2024-02-21T09:28:59;16.23;;;4.03;;
82244;SDS011;71849;50.096;14.458;2024-02-21T09:33:59;9.50;;;3.28;;
82244;SDS011;71849;50.096;14.458;2024-02-21T09:36:27;11.80;;;3.53;;
82244;SDS011;71849;50.096;14.458;2024-02-21T09:38:56;11.05;;;3.70;;
82244;SDS011;71849;50.096;14.458;2024-02-21T09:41:25;12.27;;;3.28;;
82244;SDS011;71849;50.096;14.458;2024-02-21T09:46:25;8.75;;;3.10;;
82244;SDS011;71849;50.096;14.458;2024-02-21T09:49:09;11.57;;;3.40;;
82244;SDS011;71849;50.096;14.458;2024-02-21T09:51:49;9.27;;;3.00;;
82244;SDS011;71849;50.096;14.458;2024-02-21T09:54:20;14.05;;;3.70;;
82244;SDS011;71849;50.096;14.458;2024-02-21T09:56:49;11.95;;;3.10;;
82244;SDS011;71849;50.096;14.458;2024-02-21T09:59:20;12.30;;;3.78;;
82244;SDS011;71849;50.096;14.458;2024-02-21T10:01:51;9.95;;;3.38;;
82244;SDS011;71849;50.096;14.458;2024-02-21T10:04:20;9.80;;;4.20;;
82244;SDS011;71849;50.096;14.458;2024-02-21T10:06:49;18.13;;;4.85;;
82244;SDS011;71849;50.096;14.458;2024-02-21T10:09:21;12.95;;;3.72;;
82244;SDS011;71849;50.096;14.458;2024-02-21T10:11:52;13.50;;;3.75;;
82244;SDS011;71849;50.096;14.458;2024-02-21T10:14:24;16.48;;;3.33;;
82244;SDS011;71849;50.096;14.458;2024-02-21T10:16:56;10.32;;;2.97;;
82244;SDS011;71849;50.096;14.458;2024-02-21T10:19:27;10.15;;;3.53;;
82244;SDS011;71849;50.096;14.458;2024-02-21T10:22:02;13.88;;;3.60;;
82244;SDS011;71849;50.096;14.458;2024-02-21T10:24:32;9.57;;;3.35;;
82244;SDS011;71849;50.096;14.458;2024-02-21T10:27:03;10.95;;;3.00;;
82244;SDS011;71849;50.096;14.458;2024-02-21T10:29:36;15.75;;;3.50;;
82244;SDS011;71849;50.096;14.458;2024-02-21T10:32:05;9.73;;;3.50;;
82244;SDS011;71849;50.096;14.458;2024-02-21T10:34:36;11.48;;;3.45;;
82244;SDS011;71849;50.096;14.458;2024-02-21T10:37:05;12.23;;;3.40;;
82244;SDS011;71849;50.096;14.458;2024-02-21T10:39:32;9.25;;;3.08;;
82244;SDS011;71849;50.096;14.458;2024-02-21T10:42:02;10.10;;;2.85;;
82244;SDS011;71849;50.096;14.458;2024-02-21T10:44:32;9.25;;;2.85;;
82244;SDS011;71849;50.096;14.458;2024-02-21T10:47:05;9.68;;;2.70;;
82244;SDS011;71849;50.096;14.458;2024-02-21T10:49:36;11.70;;;2.92;;
82244;SDS011;71849;50.096;14.458;2024-02-21T10:52:12;7.40;;;2.70;;
82244;SDS011;71849;50.096;14.458;2024-02-21T10:54:47;8.32;;;2.92;;
82244;SDS011;71849;50.096;14.458;2024-02-21T10:57:21;7.03;;;2.20;;
82244;SDS011;71849;50.096;14.458;2024-02-21T10:59:52;6.60;;;2.60;;
82244;SDS011;71849;50.096;14.458;2024-02-21T11:02:25;9.85;;;2.35;;
82244;SDS011;71849;50.096;14.458;2024-02-21T11:04:57;6.63;;;2.40;;
82244;SDS011;71849;50.096;14.458;2024-02-21T11:07:26;8.02;;;2.38;;
82244;SDS011;71849;50.096;14.458;2024-02-21T11:09:55;7.78;;;2.90;;
82244;SDS011;71849;50.096;14.458;2024-02-21T11:12:25;7.57;;;2.25;;
82244;SDS011;71849;50.096;14.458;2024-02-21T11:15:03;7.18;;;2.20;;
82244;SDS011;71849;50.096;14.458;2024-02-21T11:17:35;8.15;;;2.42;;
82244;SDS011;71849;50.096;14.458;2024-02-21T11:20:12;9.07;;;2.80;;
82244;SDS011;71849;50.096;14.458;2024-02-21T11:22:41;9.95;;;2.38;;
82244;SDS011;71849;50.096;14.458;2024-02-21T11:25:10;7.32;;;2.38;;
82244;SDS011;71849;50.096;14.458;2024-02-21T11:27:39;8.77;;;2.15;;
82244;SDS011;71849;50.096;14.458;2024-02-21T11:30:14;8.52;;;2.80;;
82244;SDS011;71849;50.096;14.458;2024-02-21T11:32:50;9.85;;;2.45;;
82244;SDS011;71849;50.096;14.458;2024-02-21T11:35:26;9.15;;;2.92;;
82244;SDS011;71849;50.096;14.458;2024-02-21T11:38:09;7.38;;;2.20;;
82244;SDS011;71849;50.096;14.458;2024-02-21T11:40:41;7.03;;;2.42;;
82244;SDS011;71849;50.096;14.458;2024-02-21T11:43:12;9.05;;;2.42;;
82244;SDS011;71849;50.096;14.458;2024-02-21T11:45:41;10.40;;;2.67;;
82244;SDS011;71849;50.096;14.458;2024-02-21T11:48:12;10.30;;;4.20;;
82244;SDS011;71849;50.096;14.458;2024-02-21T11:50:40;11.13;;;3.20;;
82244;SDS011;71849;50.096;14.458;2024-02-21T11:53:09;6.47;;;2.60;;
82244;SDS011;71849;50.096;14.458;2024-02-21T11:55:38;10.52;;;2.75;;
82244;SDS011;71849;50.096;14.458;2024-02-21T11:58:07;9.63;;;2.90;;
82244;SDS011;71849;50.096;14.458;2024-02-21T12:00:35;10.60;;;3.40;;
82244;SDS011;71849;50.096;14.458;2024-02-21T12:03:05;9.32;;;2.97;;
82244;SDS011;71849;50.096;14.458;2024-02-21T12:05:36;5.68;;;2.67;;
82244;SDS011;71849;50.096;14.458;2024-02-21T12:08:05;9.20;;;2.67;;
82244;SDS011;71849;50.096;14.458;2024-02-21T12:10:35;9.98;;;2.83;;
82244;SDS011;71849;50.096;14.458;2024-02-21T12:13:07;7.10;;;2.50;;
82244;SDS011;71849;50.096;14.458;2024-02-21T12:15:36;8.35;;;2.15;;
82244;SDS011;71849;50.096;14.458;2024-02-21T12:18:06;10.07;;;2.40;;
82244;SDS011;71849;50.096;14.458;2024-02-21T12:20:37;7.05;;;2.30;;
82244;SDS011;71849;50.096;14.458;2024-02-21T12:23:08;8.65;;;2.28;;
82244;SDS011;71849;50.096;14.458;2024-02-21T12:25:37;14.82;;;5.63;;
82244;SDS011;71849;50.096;14.458;2024-02-21T12:28:08;7.22;;;2.40;;
82244;SDS011;71849;50.096;14.458;2024-02-21T12:30:38;15.73;;;5.00;;
82244;SDS011;71849;50.096;14.458;2024-02-21T12:33:09;10.02;;;2.70;;
82244;SDS011;71849;50.096;14.458;2024-02-21T12:35:41;6.30;;;1.90;;
82244;SDS011;71849;50.096;14.458;2024-02-21T12:38:12;5.57;;;1.98;;
82244;SDS011;71849;50.096;14.458;2024-02-21T12:40:43;12.68;;;2.08;;
82244;SDS011;71849;50.096;14.458;2024-02-21T12:43:11;7.75;;;2.42;;
82244;SDS011;71849;50.096;14.458;2024-02-21T12:45:40;6.70;;;2.33;;
82244;SDS011;71849;50.096;14.458;2024-02-21T12:48:08;5.07;;;1.80;;
82244;SDS011;71849;50.096;14.458;2024-02-21T12:50:38;7.70;;;2.67;;
82244;SDS011;71849;50.096;14.458;2024-02-21T12:53:15;7.20;;;2.25;;
82244;SDS011;71849;50.096;14.458;2024-02-21T12:55:46;5.45;;;2.20;;
82244;SDS011;71849;50.096;14.458;2024-02-21T12:58:15;7.43;;;2.03;;
82244;SDS011;71849;50.096;14.458;2024-02-21T13:00:44;12.48;;;5.15;;
82244;SDS011;71849;50.096;14.458;2024-02-21T13:03:14;14.38;;;3.25;;
82244;SDS011;71849;50.096;14.458;2024-02-21T13:05:45;10.10;;;2.20;;
82244;SDS011;71849;50.096;14.458;2024-02-21T13:08:13;10.05;;;2.13;;
82244;SDS011;71849;50.096;14.458;2024-02-21T13:10:42;8.57;;;2.08;;
82244;SDS011;71849;50.096;14.458;2024-02-21T13:13:13;6.35;;;2.03;;
82244;SDS011;71849;50.096;14.458;2024-02-21T13:15:44;7.60;;;2.20;;
82244;SDS011;71849;50.096;14.458;2024-02-21T13:18:12;5.43;;;1.80;;
82244;SDS011;71849;50.096;14.458;2024-02-21T13:20:41;8.82;;;2.40;;
82244;SDS011;71849;50.096;14.458;2024-02-21T13:23:12;13.80;;;2.45;;
82244;SDS011;71849;50.096;14.458;2024-02-21T13:25:40;6.05;;;1.83;;
82244;SDS011;71849;50.096;14.458;2024-02-21T13:28:10;6.50;;;1.95;;
82244;SDS011;71849;50.096;14.458;2024-02-21T13:30:41;5.72;;;2.17;;
82244;SDS011;71849;50.096;14.458;2024-02-21T13:33:10;9.13;;;1.92;;
82244;SDS011;71849;50.096;14.458;2024-02-21T13:38:08;7.72;;;1.98;;
82244;SDS011;71849;50.096;14.458;2024-02-21T13:40:40;8.65;;;2.25;;
82244;SDS011;71849;50.096;14.458;2024-02-21T13:43:10;8.48;;;2.25;;
82244;SDS011;71849;50.096;14.458;2024-02-21T13:45:38;8.35;;;2.17;;
82244;SDS011;71849;50.096;14.458;2024-02-21T13:48:14;8.30;;;2.67;;
82244;SDS011;71849;50.096;14.458;2024-02-21T13:50:43;5.80;;;1.85;;
82244;SDS011;71849;50.096;14.458;2024-02-21T13:53:11;7.50;;;1.88;;
82244;SDS011;71849;50.096;14.458;2024-02-21T13:55:42;11.40;;;2.53;;
82244;SDS011;71849;50.096;14.458;2024-02-21T13:58:11;7.32;;;2.10;;
82244;SDS011;71849;50.096;14.458;2024-02-21T14:00:40;5.32;;;1.70;;
82244;SDS011;71849;50.096;14.458;2024-02-21T14:03:08;12.27;;;2.47;;
82244;SDS011;71849;50.096;14.458;2024-02-21T14:05:37;5.43;;;2.10;;
82244;SDS011;71849;50.096;14.458;2024-02-21T14:08:07;4.97;;;1.90;;
82244;SDS011;71849;50.096;14.458;2024-02-21T14:10:35;7.57;;;2.10;;
82244;SDS011;71849;50.096;14.458;2024-02-21T14:13:07;8.90;;;2.88;;
82244;SDS011;71849;50.096;14.458;2024-02-21T14:15:36;8.80;;;3.08;;
82244;SDS011;71849;50.096;14.458;2024-02-21T14:18:06;8.10;;;2.40;;
82244;SDS011;71849;50.096;14.458;2024-02-21T14:20:35;6.40;;;2.00;;
82244;SDS011;71849;50.096;14.458;2024-02-21T14:23:04;7.25;;;2.75;;
82244;SDS011;71849;50.096;14.458;2024-02-21T14:25:32;6.45;;;1.92;;
82244;SDS011;71849;50.096;14.458;2024-02-21T14:28:02;7.45;;;2.10;;
82244;SDS011;71849;50.096;14.458;2024-02-21T14:30:34;10.73;;;2.15;;
82244;SDS011;71849;50.096;14.458;2024-02-21T14:33:05;5.03;;;1.77;;
82244;SDS011;71849;50.096;14.458;2024-02-21T14:35:33;7.60;;;2.25;;
82244;SDS011;71849;50.096;14.458;2024-02-21T14:38:02;6.20;;;2.03;;
82244;SDS011;71849;50.096;14.458;2024-02-21T14:40:32;6.07;;;1.92;;
82244;SDS011;71849;50.096;14.458;2024-02-21T14:43:00;5.10;;;2.03;;
82244;SDS011;71849;50.096;14.458;2024-02-21T14:45:29;7.40;;;2.20;;
82244;SDS011;71849;50.096;14.458;2024-02-21T14:48:00;9.55;;;2.38;;
82244;SDS011;71849;50.096;14.458;2024-02-21T14:50:29;7.00;;;2.15;;
82244;SDS011;71849;50.096;14.458;2024-02-21T14:52:57;10.32;;;2.08;;
82244;SDS011;71849;50.096;14.458;2024-02-21T14:55:26;8.75;;;2.00;;
82244;SDS011;71849;50.096;14.458;2024-02-21T14:57:55;6.75;;;2.17;;
82244;SDS011;71849;50.096;14.458;2024-02-21T15:00:23;7.20;;;2.67;;